createdAt,value
2023-05-08T00:00:31.836Z,15.40
2023-05-08T00:03:00.498Z,15.97
2023-05-08T00:05:29.213Z,15.47
2023-05-08T00:08:01.612Z,15.23
2023-05-08T00:10:30.679Z,15.90
2023-05-08T00:12:59.326Z,16.40
2023-05-08T00:15:28.042Z,16.53
2023-05-08T00:17:56.681Z,17.47
2023-05-08T00:20:25.345Z,16.20
2023-05-08T00:22:53.867Z,16.03
2023-05-08T00:25:23.873Z,16.73
2023-05-08T00:27:52.521Z,16.23
2023-05-08T00:30:21.503Z,16.63
2023-05-08T00:32:50.161Z,16.00
2023-05-08T00:35:18.754Z,15.80
2023-05-08T00:37:47.347Z,16.50
2023-05-08T00:40:16.258Z,15.90
2023-05-08T00:42:46.426Z,15.80
2023-05-08T00:45:14.979Z,15.83
2023-05-08T00:47:43.894Z,17.47
2023-05-08T00:50:13.215Z,15.43
2023-05-08T00:52:42.527Z,15.97
2023-05-08T00:55:11.319Z,15.73
2023-05-08T00:57:40.576Z,15.67
2023-05-08T01:00:12.604Z,15.70
2023-05-08T01:02:42.001Z,15.67
2023-05-08T01:05:11.090Z,16.70
2023-05-08T01:07:40.130Z,16.10
2023-05-08T01:10:09.786Z,17.33
2023-05-08T01:12:51.989Z,15.70
2023-05-08T01:15:29.389Z,16.60
2023-05-08T01:18:09.078Z,16.13
2023-05-08T01:20:47.060Z,16.43
2023-05-08T01:23:58.359Z,16.60
2023-05-08T01:26:45.393Z,16.47
2023-05-08T01:30:04.004Z,16.57
2023-05-08T01:32:38.333Z,18.00
2023-05-08T01:35:16.582Z,16.23
2023-05-08T01:37:51.251Z,17.17
2023-05-08T01:40:28.139Z,18.17
2023-05-08T01:43:04.960Z,17.47
2023-05-08T01:45:37.052Z,16.70
2023-05-08T01:48:11.232Z,17.77
2023-05-08T01:50:43.826Z,17.57
2023-05-08T01:53:18.763Z,17.60
2023-05-08T01:55:50.314Z,17.40
2023-05-08T01:58:19.812Z,17.13
2023-05-08T02:00:49.539Z,17.13
2023-05-08T02:03:22.704Z,16.57
2023-05-08T02:05:53.766Z,17.63
2023-05-08T02:08:24.464Z,16.60
2023-05-08T02:10:54.268Z,16.97
2023-05-08T02:13:24.120Z,15.63
2023-05-08T02:15:56.024Z,16.00
2023-05-08T02:18:27.628Z,15.00
2023-05-08T02:20:57.643Z,16.43
2023-05-08T02:23:28.861Z,15.73
2023-05-08T02:25:58.175Z,15.27
2023-05-08T02:28:28.595Z,15.90
2023-05-08T02:30:59.952Z,16.27
2023-05-08T02:33:32.324Z,15.20
2023-05-08T02:36:02.161Z,15.70
2023-05-08T02:38:33.144Z,16.03
2023-05-08T02:41:04.243Z,14.93
2023-05-08T02:43:33.053Z,15.67
2023-05-08T02:46:11.543Z,16.23
2023-05-08T02:48:52.400Z,15.93
2023-05-08T02:51:25.920Z,16.33
2023-05-08T02:53:57.587Z,15.77
2023-05-08T02:56:34.509Z,16.07
2023-05-08T02:59:13.732Z,16.00
2023-05-08T03:01:49.887Z,15.37
2023-05-08T03:04:27.104Z,16.00
2023-05-08T03:06:59.220Z,15.87
2023-05-08T03:09:33.528Z,15.43
2023-05-08T03:12:08.373Z,15.63
2023-05-08T03:14:44.421Z,15.23
2023-05-08T03:17:16.774Z,16.30
2023-05-08T03:19:52.155Z,16.07
2023-05-08T03:22:22.689Z,16.13
2023-05-08T03:24:54.907Z,16.00
2023-05-08T03:27:24.021Z,15.53
2023-05-08T03:29:53.528Z,15.60
2023-05-08T03:32:25.340Z,15.80
2023-05-08T03:34:56.866Z,15.50
2023-05-08T03:37:25.492Z,16.23
2023-05-08T03:39:54.246Z,16.13
2023-05-08T03:42:23.514Z,16.43
2023-05-08T03:44:53.097Z,16.87
2023-05-08T03:47:23.082Z,16.67
2023-05-08T03:49:51.953Z,16.47
2023-05-08T03:52:22.565Z,16.70
2023-05-08T03:54:51.136Z,16.37
2023-05-08T03:57:19.655Z,16.00
2023-05-08T03:59:54.170Z,18.33
2023-05-08T04:02:30.138Z,17.70
2023-05-08T04:05:07.155Z,18.67
2023-05-08T04:07:44.214Z,18.60
2023-05-08T04:10:17.992Z,18.03
2023-05-08T04:12:52.989Z,18.23
2023-05-08T04:15:24.598Z,18.67
2023-05-08T04:17:57.755Z,18.03
2023-05-08T04:20:28.990Z,18.93
2023-05-08T04:23:00.303Z,19.33
2023-05-08T04:25:31.060Z,19.20
2023-05-08T04:28:02.827Z,29.93
2023-05-08T04:30:32.038Z,19.17
2023-05-08T04:33:01.804Z,17.70
2023-05-08T04:35:30.748Z,17.30
2023-05-08T04:38:01.045Z,17.00
2023-05-08T04:40:29.947Z,17.47
2023-05-08T04:43:00.653Z,16.10
2023-05-08T04:45:29.305Z,15.43
2023-05-08T04:47:57.977Z,15.73
2023-05-08T04:50:26.898Z,15.23
2023-05-08T04:52:55.958Z,15.10
2023-05-08T04:55:25.900Z,15.03
2023-05-08T04:57:54.841Z,13.80
2023-05-08T05:00:23.640Z,15.60
2023-05-08T05:02:52.215Z,15.07
2023-05-08T05:05:21.046Z,15.40
2023-05-08T05:07:49.706Z,14.07
2023-05-08T05:10:18.544Z,14.10
2023-05-08T05:12:48.586Z,14.00
2023-05-08T05:15:17.580Z,14.20
2023-05-08T05:17:46.142Z,14.10
2023-05-08T05:20:15.370Z,14.07
2023-05-08T05:22:44.112Z,13.80
2023-05-08T05:25:14.003Z,14.27
2023-05-08T05:27:42.749Z,13.73
2023-05-08T05:30:13.685Z,13.37
2023-05-08T05:32:43.391Z,13.33
2023-05-08T05:35:12.822Z,12.30
2023-05-08T05:37:41.751Z,12.50
2023-05-08T05:40:13.461Z,13.00
2023-05-08T05:42:42.092Z,11.83
2023-05-08T05:45:13.708Z,13.00
2023-05-08T05:47:46.967Z,12.70
2023-05-08T05:50:16.038Z,13.47
2023-05-08T05:52:44.683Z,11.83
2023-05-08T05:55:13.599Z,11.37
2023-05-08T05:57:42.779Z,11.83
2023-05-08T06:00:24.742Z,12.00
2023-05-08T06:02:53.824Z,12.73
2023-05-08T06:05:23.732Z,11.93
2023-05-08T06:07:52.526Z,11.40
2023-05-08T06:10:21.642Z,11.77
2023-05-08T06:12:50.561Z,11.97
2023-05-08T06:15:21.425Z,12.10
2023-05-08T06:17:50.355Z,10.77
2023-05-08T06:20:19.608Z,11.83
2023-05-08T06:22:48.621Z,11.03
2023-05-08T06:25:18.380Z,10.87
2023-05-08T06:27:47.053Z,11.93
2023-05-08T06:30:15.894Z,10.87
2023-05-08T06:32:46.100Z,11.37
2023-05-08T06:35:18.956Z,11.67
2023-05-08T06:37:47.982Z,10.33
2023-05-08T06:40:16.562Z,10.80
2023-05-08T06:42:46.491Z,11.87
2023-05-08T06:45:15.427Z,11.60
2023-05-08T06:47:46.011Z,12.53
2023-05-08T06:50:14.721Z,11.57
2023-05-08T06:52:43.721Z,12.03
2023-05-08T06:55:12.518Z,11.80
2023-05-08T06:57:41.262Z,11.37
2023-05-08T07:00:11.914Z,10.83
2023-05-08T07:02:40.757Z,10.67
2023-05-08T07:05:11.797Z,11.40
2023-05-08T07:07:43.119Z,10.87
2023-05-08T07:10:12.480Z,11.40
2023-05-08T07:12:42.989Z,10.43
2023-05-08T07:15:24.767Z,12.30
2023-05-08T07:17:55.732Z,12.73
2023-05-08T07:20:26.574Z,11.67
2023-05-08T07:22:56.354Z,11.90
2023-05-08T07:25:25.391Z,12.00
2023-05-08T07:27:54.494Z,12.37
2023-05-08T07:30:23.741Z,12.37
2023-05-08T07:32:52.722Z,13.07
2023-05-08T07:35:25.247Z,12.07
2023-05-08T07:37:57.362Z,12.57
2023-05-08T07:40:27.022Z,12.17
2023-05-08T07:42:55.922Z,11.50
2023-05-08T07:45:25.898Z,12.13
2023-05-08T07:47:58.844Z,11.70
2023-05-08T07:50:29.107Z,11.47
2023-05-08T07:52:59.708Z,11.00
2023-05-08T07:55:28.763Z,11.03
2023-05-08T07:57:57.545Z,11.67
2023-05-08T08:00:27.859Z,11.47
2023-05-08T08:03:00.201Z,10.53
2023-05-08T08:05:30.716Z,10.37
2023-05-08T08:08:03.059Z,10.77
2023-05-08T08:10:32.365Z,10.83
2023-05-08T08:13:02.090Z,10.93
2023-05-08T08:15:31.060Z,9.93
2023-05-08T08:18:00.124Z,10.87
2023-05-08T08:20:30.744Z,10.40
2023-05-08T08:23:04.811Z,10.93
2023-05-08T08:25:34.125Z,10.57
2023-05-08T08:28:03.154Z,10.00
2023-05-08T08:30:38.651Z,9.53
2023-05-08T08:33:11.333Z,11.33
2023-05-08T08:35:45.167Z,9.57
2023-05-08T08:38:16.203Z,9.48
2023-05-08T08:40:45.221Z,8.23
2023-05-08T08:43:19.205Z,8.32
2023-05-08T08:45:48.937Z,8.32
2023-05-08T08:48:24.243Z,7.80
2023-05-08T08:50:59.180Z,7.72
2023-05-08T08:53:42.316Z,6.50
2023-05-08T08:56:16.462Z,7.32
2023-05-08T08:58:56.181Z,7.75
2023-05-08T09:01:29.753Z,7.13
2023-05-08T09:04:00.390Z,6.25
2023-05-08T09:06:38.267Z,6.07
2023-05-08T09:09:20.374Z,5.30
2023-05-08T09:11:50.188Z,5.90
2023-05-08T09:14:19.663Z,5.90
2023-05-08T09:16:49.029Z,4.50
2023-05-08T09:19:25.638Z,5.18
2023-05-08T09:22:00.677Z,5.88
2023-05-08T09:24:58.598Z,5.20
2023-05-08T09:27:29.552Z,6.18
2023-05-08T09:30:07.798Z,5.35
2023-05-08T09:32:39.147Z,5.43
2023-05-08T09:35:11.163Z,5.50
2023-05-08T09:37:52.847Z,4.70
2023-05-08T09:40:27.895Z,4.50
2023-05-08T09:42:56.660Z,4.35
2023-05-08T09:45:33.356Z,4.32
2023-05-08T09:48:03.018Z,4.20
2023-05-08T09:50:33.972Z,4.30
2023-05-08T09:53:03.492Z,3.35
2023-05-08T09:55:51.387Z,3.60
2023-05-08T09:58:25.617Z,3.17
2023-05-08T10:01:04.601Z,3.03
2023-05-08T10:04:02.527Z,2.97
2023-05-08T10:06:32.716Z,3.30
2023-05-08T10:09:16.806Z,2.97
2023-05-08T10:11:54.339Z,2.78
2023-05-08T10:14:27.517Z,2.72
2023-05-08T10:17:13.873Z,2.47
2023-05-08T10:19:48.915Z,2.40
2023-05-08T10:22:21.630Z,2.20
2023-05-08T10:24:54.898Z,1.50
2023-05-08T10:27:36.269Z,1.70
2023-05-08T10:30:06.680Z,1.50
2023-05-08T10:32:42.271Z,2.50
2023-05-08T10:35:18.116Z,2.10
2023-05-08T10:37:56.663Z,1.92
2023-05-08T10:40:28.288Z,1.60
2023-05-08T10:43:11.366Z,2.25
2023-05-08T10:45:43.308Z,2.47
2023-05-08T10:48:25.934Z,2.25
2023-05-08T10:51:05.380Z,1.92
2023-05-08T10:53:43.751Z,2.42
2023-05-08T10:56:15.523Z,2.67
2023-05-08T10:59:00.582Z,2.15
2023-05-08T11:01:31.255Z,2.10
2023-05-08T11:04:01.371Z,1.98
2023-05-08T11:06:49.570Z,1.52
2023-05-08T11:09:40.979Z,1.83
2023-05-08T11:12:28.755Z,1.80
2023-05-08T11:15:13.842Z,2.08
2023-05-08T11:17:47.044Z,2.63
2023-05-08T11:20:20.787Z,2.60
2023-05-08T11:22:56.666Z,2.78
2023-05-08T11:25:47.941Z,2.10
2023-05-08T11:28:19.185Z,2.35
2023-05-08T11:30:59.463Z,5.55
2023-05-08T11:33:38.546Z,2.30
2023-05-08T11:36:29.986Z,2.30
2023-05-08T11:39:19.939Z,2.63
2023-05-08T11:41:52.395Z,2.42
2023-05-08T11:44:27.161Z,2.63
2023-05-08T11:47:02.252Z,2.47
2023-05-08T11:49:32.084Z,2.47
2023-05-08T11:52:05.001Z,2.40
2023-05-08T11:54:35.226Z,2.90
2023-05-08T11:57:07.766Z,2.80
2023-05-08T11:59:52.603Z,2.83
2023-05-08T12:02:38.191Z,2.33
2023-05-08T12:05:10.976Z,2.78
2023-05-08T12:07:48.735Z,2.38
2023-05-08T12:10:20.848Z,3.42
2023-05-08T12:12:54.332Z,2.47
2023-05-08T12:15:25.207Z,2.80
2023-05-08T12:18:04.897Z,2.88
2023-05-08T12:20:35.179Z,2.97
2023-05-08T12:23:05.859Z,2.70
2023-05-08T12:25:37.524Z,3.13
2023-05-08T12:28:11.455Z,2.90
2023-05-08T12:30:47.306Z,2.20
2023-05-08T12:33:22.108Z,2.83
2023-05-08T12:35:51.748Z,2.60
2023-05-08T12:38:20.803Z,2.97
2023-05-08T12:40:53.573Z,2.80
2023-05-08T12:43:33.190Z,2.95
2023-05-08T12:46:04.468Z,2.65
2023-05-08T12:48:41.526Z,5.88
2023-05-08T12:51:12.580Z,8.50
2023-05-08T12:53:42.549Z,3.80
2023-05-08T12:56:13.735Z,3.60
2023-05-08T12:58:45.975Z,4.03
2023-05-08T13:01:17.560Z,3.17
2023-05-08T13:04:03.360Z,3.00
2023-05-08T13:06:33.492Z,2.78
2023-05-08T13:09:03.134Z,3.70
2023-05-08T13:11:33.834Z,3.00
2023-05-08T13:14:03.562Z,3.25
2023-05-08T13:16:47.110Z,2.90
2023-05-08T13:19:21.173Z,4.00
2023-05-08T13:21:51.064Z,5.15
2023-05-08T13:24:24.012Z,9.35
2023-05-08T13:26:53.666Z,7.32
2023-05-08T13:29:25.860Z,5.00
2023-05-08T13:31:55.123Z,4.88
2023-05-08T13:34:32.474Z,3.30
2023-05-08T13:37:04.349Z,2.88
2023-05-08T13:39:37.469Z,2.30
2023-05-08T13:42:09.321Z,2.10
2023-05-08T13:44:38.495Z,1.80
2023-05-08T13:47:08.290Z,1.77
2023-05-08T13:49:38.744Z,1.98
2023-05-08T13:52:11.446Z,1.40
2023-05-08T13:54:41.404Z,1.52
2023-05-08T13:57:14.972Z,2.38
2023-05-08T13:59:47.086Z,1.65
2023-05-08T14:02:26.412Z,1.60
2023-05-08T14:05:00.009Z,1.80
2023-05-08T14:07:30.377Z,1.63
2023-05-08T14:09:59.713Z,1.50
2023-05-08T14:12:29.122Z,1.58
2023-05-08T14:15:02.539Z,2.10
2023-05-08T14:17:32.643Z,1.70
2023-05-08T14:20:09.171Z,1.95
2023-05-08T14:22:42.025Z,1.98
2023-05-08T14:25:22.524Z,2.40
2023-05-08T14:27:56.773Z,1.92
2023-05-08T14:30:29.573Z,2.80
2023-05-08T14:32:59.006Z,2.50
2023-05-08T14:35:33.977Z,2.90
2023-05-08T14:38:12.656Z,2.72
2023-05-08T14:40:44.500Z,2.47
2023-05-08T14:43:29.149Z,2.80
2023-05-08T14:46:03.257Z,2.97
2023-05-08T14:48:36.980Z,3.13
2023-05-08T14:51:16.571Z,3.35
2023-05-08T14:54:03.370Z,3.75
2023-05-08T14:56:46.435Z,3.88
2023-05-08T14:59:24.672Z,3.80
2023-05-08T15:01:55.687Z,3.65
2023-05-08T15:04:38.629Z,4.18
2023-05-08T15:07:12.196Z,4.05
2023-05-08T15:09:42.240Z,3.38
2023-05-08T15:12:11.540Z,4.07
2023-05-08T15:14:46.057Z,3.60
2023-05-08T15:17:15.708Z,3.20
2023-05-08T15:19:49.071Z,3.30
2023-05-08T15:22:22.883Z,3.17
2023-05-08T15:24:53.229Z,2.85
2023-05-08T15:27:23.336Z,3.53
2023-05-08T15:29:53.567Z,3.30
2023-05-08T15:32:24.018Z,3.55
2023-05-08T15:34:53.515Z,3.75
2023-05-08T15:37:26.692Z,3.65
2023-05-08T15:39:57.589Z,3.78
2023-05-08T15:42:27.545Z,3.60
2023-05-08T15:45:02.423Z,4.10
2023-05-08T15:47:44.849Z,4.10
2023-05-08T15:50:16.765Z,3.97
2023-05-08T15:52:49.620Z,4.07
2023-05-08T15:55:25.145Z,4.25
2023-05-08T15:58:04.818Z,5.30
2023-05-08T16:00:43.787Z,3.75
2023-05-08T16:03:24.497Z,4.13
2023-05-08T16:05:54.409Z,4.25
2023-05-08T16:08:27.437Z,4.00
2023-05-08T16:10:56.845Z,4.35
2023-05-08T16:13:28.833Z,4.30
2023-05-08T16:16:03.607Z,3.30
2023-05-08T16:18:32.911Z,4.00
2023-05-08T16:21:03.110Z,6.70
2023-05-08T16:23:34.236Z,6.15
2023-05-08T16:26:04.538Z,4.65
2023-05-08T16:28:33.935Z,4.25
2023-05-08T16:31:12.236Z,4.65
2023-05-08T16:33:41.538Z,4.10
2023-05-08T16:36:11.073Z,4.15
2023-05-08T16:38:41.747Z,4.60
2023-05-08T16:41:11.728Z,3.63
2023-05-08T16:43:41.070Z,3.53
2023-05-08T16:46:17.519Z,3.50
2023-05-08T16:48:49.947Z,3.90
2023-05-08T16:51:20.476Z,3.47
2023-05-08T16:53:50.970Z,4.50
2023-05-08T16:56:21.418Z,3.72
2023-05-08T16:58:53.052Z,4.30
2023-05-08T17:01:25.257Z,4.05
2023-05-08T17:04:02.386Z,4.15
2023-05-08T17:06:55.443Z,4.47
2023-05-08T17:09:29.784Z,4.22
2023-05-08T17:12:10.354Z,4.28
2023-05-08T17:14:46.106Z,4.18
2023-05-08T17:17:15.919Z,4.15
2023-05-08T17:19:47.722Z,3.88
2023-05-08T17:22:20.018Z,3.95
2023-05-08T17:24:52.589Z,4.50
2023-05-08T17:27:24.060Z,4.18
2023-05-08T17:29:54.113Z,4.22
2023-05-08T17:32:24.612Z,4.03
2023-05-08T17:34:53.884Z,4.25
2023-05-08T17:37:23.224Z,4.00
2023-05-08T17:39:56.818Z,4.35
2023-05-08T17:42:30.016Z,4.15
2023-05-08T17:44:59.679Z,3.90
2023-05-08T17:47:30.560Z,4.25
2023-05-08T17:50:06.449Z,4.57
2023-05-08T17:52:38.047Z,4.47
2023-05-08T17:55:11.012Z,4.30
2023-05-08T17:57:41.136Z,4.57
2023-05-08T18:00:27.995Z,4.18
2023-05-08T18:03:01.006Z,4.05
2023-05-08T18:05:35.437Z,4.45
2023-05-08T18:08:05.546Z,4.80
2023-05-08T18:10:38.046Z,5.07
2023-05-08T18:13:07.794Z,4.47
2023-05-08T18:15:40.663Z,4.30
2023-05-08T18:18:14.031Z,4.33
2023-05-08T18:20:46.959Z,4.60
2023-05-08T18:23:19.624Z,4.10
2023-05-08T18:25:55.351Z,4.70
2023-05-08T18:28:26.827Z,4.32
2023-05-08T18:31:01.677Z,4.47
2023-05-08T18:33:34.602Z,4.65
2023-05-08T18:36:13.126Z,4.40
2023-05-08T18:38:46.957Z,4.80
2023-05-08T18:41:28.133Z,4.37
2023-05-08T18:44:02.110Z,4.90
2023-05-08T18:46:34.962Z,4.67
2023-05-08T18:49:13.629Z,4.80
2023-05-08T18:51:53.527Z,4.93
2023-05-08T18:54:28.243Z,5.07
2023-05-08T18:57:09.625Z,5.07
2023-05-08T18:59:41.131Z,5.50
2023-05-08T19:02:11.102Z,4.80
2023-05-08T19:04:46.760Z,4.70
2023-05-08T19:07:21.284Z,4.83
2023-05-08T19:10:00.053Z,6.20
2023-05-08T19:12:31.138Z,5.23
2023-05-08T19:15:01.110Z,5.57
2023-05-08T19:17:36.799Z,5.40
2023-05-08T19:20:08.598Z,5.47
2023-05-08T19:22:40.637Z,5.67
2023-05-08T19:25:10.403Z,5.00
2023-05-08T19:27:43.179Z,5.20
2023-05-08T19:30:13.285Z,5.53
2023-05-08T19:32:43.614Z,5.30
2023-05-08T19:35:15.869Z,5.17
2023-05-08T19:37:57.373Z,5.80
2023-05-08T19:40:26.843Z,5.80
2023-05-08T19:42:58.164Z,5.50
2023-05-08T19:45:28.810Z,5.40
2023-05-08T19:47:58.338Z,5.70
2023-05-08T19:50:27.854Z,5.67
2023-05-08T19:52:58.473Z,6.90
2023-05-08T19:55:28.282Z,6.13
2023-05-08T19:57:59.563Z,5.60
2023-05-08T20:00:33.695Z,5.93
2023-05-08T20:03:11.697Z,5.87
2023-05-08T20:05:41.061Z,8.23
2023-05-08T20:08:17.097Z,7.30
2023-05-08T20:10:49.334Z,7.07
2023-05-08T20:13:21.485Z,6.73
2023-05-08T20:15:50.855Z,7.57
2023-05-08T20:18:25.592Z,7.90
2023-05-08T20:20:55.884Z,8.00
2023-05-08T20:23:27.377Z,6.87
2023-05-08T20:25:56.847Z,7.30
2023-05-08T20:28:30.658Z,6.90
2023-05-08T20:31:02.866Z,7.30
2023-05-08T20:33:34.873Z,7.10
2023-05-08T20:36:08.983Z,7.40
2023-05-08T20:38:45.722Z,7.47
2023-05-08T20:41:19.039Z,6.90
2023-05-08T20:43:56.694Z,6.63
2023-05-08T20:46:26.239Z,6.90
2023-05-08T20:48:55.931Z,6.67
2023-05-08T20:51:25.718Z,7.20
2023-05-08T20:53:55.023Z,8.10
2023-05-08T20:56:24.599Z,7.23
2023-05-08T20:58:55.792Z,7.40
2023-05-08T21:01:25.244Z,8.10
2023-05-08T21:04:02.314Z,7.70
2023-05-08T21:06:34.925Z,7.20
2023-05-08T21:09:05.225Z,7.63
2023-05-08T21:11:36.446Z,7.30
2023-05-08T21:14:07.263Z,6.90
2023-05-08T21:16:36.788Z,6.50
2023-05-08T21:19:06.114Z,6.47
2023-05-08T21:21:38.388Z,6.33
2023-05-08T21:24:08.700Z,6.63
2023-05-08T21:26:41.621Z,6.60
2023-05-08T21:29:14.880Z,7.20
2023-05-08T21:31:43.870Z,7.10
2023-05-08T21:34:13.730Z,7.93
2023-05-08T21:36:42.752Z,8.30
2023-05-08T21:39:14.253Z,9.40
2023-05-08T21:41:49.658Z,10.87
2023-05-08T21:44:21.850Z,12.33
2023-05-08T21:46:50.906Z,11.97
2023-05-08T21:49:20.453Z,11.67
2023-05-08T21:51:51.083Z,10.63
2023-05-08T21:54:22.856Z,11.03
2023-05-08T21:56:53.277Z,10.73
2023-05-08T21:59:24.162Z,10.40
2023-05-08T22:01:56.894Z,9.73
2023-05-08T22:04:26.034Z,8.87
2023-05-08T22:06:57.249Z,8.70
2023-05-08T22:09:26.602Z,7.83
2023-05-08T22:11:58.668Z,7.77
2023-05-08T22:14:29.526Z,7.90
2023-05-08T22:16:58.513Z,7.50
2023-05-08T22:19:28.157Z,7.27
2023-05-08T22:21:57.253Z,7.27
2023-05-08T22:24:27.378Z,6.47
2023-05-08T22:26:56.317Z,7.43
2023-05-08T22:29:25.761Z,7.03
2023-05-08T22:31:56.486Z,7.10
2023-05-08T22:34:25.912Z,7.60
2023-05-08T22:36:54.883Z,7.60
2023-05-08T22:39:23.551Z,7.90
2023-05-08T22:41:55.040Z,8.50
2023-05-08T22:44:24.442Z,7.90
2023-05-08T22:46:53.678Z,7.53
2023-05-08T22:49:24.139Z,7.67
2023-05-08T22:51:56.338Z,7.23
2023-05-08T22:54:25.906Z,8.67
2023-05-08T22:56:54.810Z,7.87
2023-05-08T22:59:25.316Z,7.77
2023-05-08T23:01:54.448Z,7.40
2023-05-08T23:04:25.151Z,7.63
2023-05-08T23:06:56.851Z,6.87
2023-05-08T23:09:25.688Z,7.50
2023-05-08T23:11:54.444Z,7.77
2023-05-08T23:14:23.193Z,7.90
2023-05-08T23:16:52.078Z,7.77
2023-05-08T23:19:20.942Z,8.17
2023-05-08T23:21:51.389Z,8.20
2023-05-08T23:24:20.519Z,8.20
2023-05-08T23:26:49.909Z,7.40
2023-05-08T23:29:21.944Z,7.83
2023-05-08T23:31:50.782Z,7.77
2023-05-08T23:34:19.690Z,7.67
2023-05-08T23:36:48.277Z,7.30
2023-05-08T23:39:19.017Z,7.47
2023-05-08T23:41:47.860Z,7.20
2023-05-08T23:44:17.130Z,7.03
2023-05-08T23:46:46.463Z,7.20
2023-05-08T23:49:15.108Z,7.77
2023-05-08T23:51:43.868Z,7.40
2023-05-08T23:54:12.825Z,8.70
2023-05-08T23:56:43.317Z,7.80
2023-05-08T23:59:11.984Z,9.53
